• Join FlightAware (Why Join?)
  • Login
  • US Flag 
11:56AM EDT


 

Airport Tracker/Info


-or-


 

Live Flight TrackerFlight Track Log ✈ N43812 ✈ 11-Feb-2014 ✈ KBTP - KCDW

Flight Track Log - Related Links

Times and Time Zones

All times are in EST time to prevent confusion due to time zone crossing. See the N43812 flight status page for this flight to view local times or setup timezone preferences in your user account.

Time Position Orientation Groundspeed Altitude Reporting Facility
EST Latitude Longitude Course Direction KTS MPH feet Rate Location/Type
10:14AM 40.7483 -79.0450 69° East 151 174 9,500  Level Cleveland Center
10:15AM 40.7497 -78.9900 88° East 151 174 9,500  Level Cleveland Center
10:16AM 40.7542 -78.9247 85° East 151 174 9,500  Level Cleveland Center
10:17AM 40.7567 -78.8700 87° East 150 173 9,500  Level Cleveland Center
10:18AM 40.7589 -78.8144 87° East 152 175 9,500  Level Cleveland Center
10:19AM 40.7033 -78.7198 69° East  Level FlightAware Approximate
10:19AM 40.7614 -78.7603 86° East 150 173 9,500  Level Cleveland Center
10:20AM 40.7642 -78.7042 86° East 153 176 9,500  Level Cleveland Center
10:21AM 40.7669 -78.6500 86° East 150 173 9,500  Level Cleveland Center
10:22AM 40.7692 -78.5833 87° East 152 175 9,500  Level Cleveland Center
10:23AM 40.7731 -78.5286 85° East 151 174 9,500  Level Cleveland Center
10:24AM 40.7744 -78.4750 88° East 148 170 9,500  Level Cleveland Center
10:25AM 40.7764 -78.4194 87° East 152 175 9,500  Level Cleveland Center
10:26AM 40.7789 -78.3656 86° East 149 171 9,500  Level Cleveland Center
10:27AM 40.7811 -78.2992 87° East 151 174 9,500  Level Cleveland Center
10:28AM 40.7836 -78.2439 87° East 152 175 9,500  Level Cleveland Center
10:29AM 40.7856 -78.1892 87° East 151 174 9,500  Level Cleveland Center
10:30AM 40.7883 -78.1339 86° East 151 174 9,500  Level Cleveland Center
10:31AM 40.7897 -78.0778 88° East 153 176 9,500  Level Cleveland Center
10:32AM 40.7914 -78.0239 88° East 148 170 9,500  Level Cleveland Center
10:33AM 40.7944 -77.9569 87° East 154 177 9,500  Level Cleveland Center
10:35AM 40.7972 -77.8550 88° East 148 170 9,500  Level New York Center
10:36AM 40.8006 -77.8003 85° East 148 170 9,500  Level New York Center
10:37AM 40.8019 -77.7428 88° East 148 170 9,500  Level New York Center
10:38AM 40.8050 -77.6883 86° East 148 170 9,500  Level New York Center
10:39AM 40.8064 -77.6308 88° East 148 170 9,500  Level New York Center
10:40AM 40.8094 -77.5764 86° East 153 176 9,500  Level New York Center
10:41AM 40.8103 -77.5242 89° East 153 176 9,500  Level New York Center
10:42AM 40.8136 -77.4697 85° East 153 176 9,500  Level New York Center
10:43AM 40.8144 -77.4150 89° East 153 176 9,500  Level New York Center
10:44AM 40.8156 -77.3603 88° East 153 176 9,500  Level New York Center
10:45AM 40.8167 -77.3000 89° East 153 176 9,600  Climbing New York Center
10:46AM 40.8197 -77.2456 86° East 153 176 9,600  Level New York Center
10:47AM 40.8208 -77.1878 89° East 153 176 9,600  Level New York Center
10:48AM 40.8236 -77.1333 86° East 158 182 9,600  Level New York Center
10:49AM 40.8225 -77.0783 92° East 158 182 9,600  Level New York Center
10:50AM 40.8256 -77.0211 86° East 158 182 9,600  Level New York Center
10:51AM 40.8264 -76.9661 89° East 158 182 9,600  Level New York Center
10:52AM 40.8272 -76.9086 89° East 158 182 9,600  Level New York Center
10:53AM 40.8297 -76.8594 86° East 158 182 9,600  Level New York Center
10:54AM 40.8308 -76.7992 89° East 151 174 9,600  Level New York Center
10:55AM 40.8314 -76.7444 89° East 151 174 9,600  Level New York Center
10:56AM 40.8361 -76.6956 83° East 146 168 9,600  Level New York Center
10:57AM 40.8372 -76.6297 89° East 146 168 9,600  Level New York Center
10:58AM 40.8375 -76.5803 90° East 152 175 9,600  Level New York Center
10:59AM 40.8381 -76.5256 89° East 152 175 9,600  Level New York Center
11:00AM 40.8411 -76.4628 86° East 152 175 9,600  Level New York Center
11:01AM 40.8417 -76.4081 89° East 152 175 9,600  Level New York Center
11:02AM 40.8425 -76.3503 89° East 152 175 9,600  Level New York Center
11:03AM 40.8444 -76.3039 87° East 152 175 9,600 -60 Level New York Center
11:04AM 40.8472 -76.2464 86° East 152 175 9,500 -60 Descending New York Center
11:05AM 40.8481 -76.1836 89° East 158 182 9,500  Level New York Center
11:06AM 40.8483 -76.1286 90° East 158 182 9,500  Level New York Center
11:07AM 40.8489 -76.0711 89° East 158 182 9,500  Level New York Center
11:08AM 40.8533 -76.0219 83° East 158 182 9,500  Level New York Center
11:09AM 40.8539 -75.9589 89° East 158 182 9,500  Level New York Center
11:10AM 40.8544 -75.9014 89° East 163 188 9,500  Level New York Center
11:11AM 40.8567 -75.8494 87° East 158 182 9,500  Level New York Center
11:12AM 40.8572 -75.7892 89° East 158 182 9,500  Level New York Center
11:13AM 40.8575 -75.7314 90° East 158 182 9,500  Level New York Center
11:14AM 40.8597 -75.6739 87° East 158 182 9,500 -60 Level New York Center
11:15AM 40.8600 -75.6219 90° East 158 182 9,400 -600 Descending New York Center
11:16AM 40.8622 -75.5672 87° East 158 182 8,300 -1,080 Descending New York Center
11:17AM 40.8625 -75.5042 90° East 158 182 7,300 -900 Descending New York Center
11:18AM 40.8644 -75.4603 87° East 158 182 6,500 -840 Descending New York Center
11:19AM 40.8625 -75.4025 93° East 152 175 5,700 -900 Descending New York Center
11:20AM 40.8647 -75.3450 87° East 139 160 4,800 -960 Descending New York Center
11:21AM 40.8644 -75.2983 90° East 139 160 3,900 -720 Descending New York Center
11:22AM 40.8642 -75.2489 90° East 139 160 3,400 -180 Descending New York Center
11:23AM 40.8658 -75.2081 87° East 139 160 3,600  Climbing New York Center
11:24AM 40.8675 -75.1586 87° East 124 143 3,400 -240 Descending New York Center
11:25AM 40.8672 -75.1119 90° East 124 143 3,200 -180 Descending New York Center
11:26AM 40.8689 -75.0656 87° East 124 143 3,100 -60 Descending New York Center
11:27AM 40.8706 -75.0217 87° East 124 143 3,100  Level New York Center
11:28AM 40.8700 -74.9778 91° East 124 143 3,100  Level New York Center
11:29AM 40.8697 -74.9256 90° East 124 143 3,100 -60 Level New York Center
11:30AM 40.8714 -74.8764 87° East 124 143 3,000 -120 Descending New York Center
11:32AM 40.8708 -74.8077 91° East  Level FlightAware Approximate
11:39AM 40.8669 -74.4382 91° East  Level FlightAware Approximate
11:40AM 40.8667 -74.3854 90° East  Level FlightAware Approximate
11:41AM 40.8667 -74.3326 90° East  Level FlightAware Approximate
11:42AM 40.8667 -74.2797 90° East  Level FlightAware Approximate
11:43AM 40.8667 -74.2667 90° East  Level FlightAware Approximate
11:44AM 40.8752 -74.2814 90° East  Level Estimated
11:45AM 40.8752 -74.2814 90° East  Level Estimated
11:46AM 40.8752 -74.2814 90° East  Level Estimated
11:47AM 40.8752 -74.2814 90° East  Level Estimated
11:48AM 40.8752 -74.2814 90° East  Level Estimated
11:49AM 40.8752 -74.2814 90° East  Level Estimated
11:50AM 40.8752 -74.2814 90° East  Level Estimated
11:51AM 40.8752 -74.2814 90° East  Level Estimated
11:52AM 40.8752 -74.2814 90° East  Level Estimated
11:53AM 40.8752 -74.2814 90° East  Level Estimated
11:54AM 40.8752 -74.2814 90° East  Level Estimated
11:55AM 40.8752 -74.2814 90° East  Level Estimated